createdAt,value
2018-11-26T00:00:46.514Z,4.40
2018-11-26T00:03:14.872Z,4.40
2018-11-26T00:05:43.172Z,4.40
2018-11-26T00:08:12.456Z,4.40
2018-11-26T00:10:52.266Z,4.50
2018-11-26T00:13:20.565Z,4.40
2018-11-26T00:15:48.893Z,4.40
2018-11-26T00:18:17.199Z,4.40
2018-11-26T00:20:45.556Z,4.40
2018-11-26T00:23:13.882Z,4.40
2018-11-26T00:25:42.237Z,4.40
2018-11-26T00:28:10.627Z,4.50
2018-11-26T00:30:39.167Z,4.50
2018-11-26T00:33:07.531Z,4.50
2018-11-26T00:35:35.897Z,4.50
2018-11-26T00:38:04.229Z,4.50
2018-11-26T00:40:32.665Z,4.50
2018-11-26T00:43:01.024Z,4.40
2018-11-26T00:45:29.388Z,4.50
2018-11-26T00:47:57.743Z,4.50
2018-11-26T00:50:26.073Z,4.40
2018-11-26T00:52:54.407Z,4.50
2018-11-26T00:55:22.764Z,4.50
2018-11-26T00:57:51.099Z,4.40
2018-11-26T01:00:19.996Z,4.40
2018-11-26T01:02:48.372Z,4.40
2018-11-26T01:05:27.822Z,4.40
2018-11-26T01:07:55.976Z,4.40
2018-11-26T01:10:24.140Z,4.40
2018-11-26T01:12:52.347Z,4.30
2018-11-26T01:15:20.523Z,4.30
2018-11-26T01:17:48.704Z,4.30
2018-11-26T01:20:16.908Z,4.30
2018-11-26T01:22:45.031Z,4.30
2018-11-26T01:25:13.209Z,4.40
2018-11-26T01:27:41.645Z,4.40
2018-11-26T01:30:09.943Z,4.40
2018-11-26T01:32:38.116Z,4.30
2018-11-26T01:35:07.392Z,4.30
2018-11-26T01:37:35.576Z,4.30
2018-11-26T01:40:03.971Z,4.30
2018-11-26T01:42:32.139Z,4.30
2018-11-26T01:45:00.745Z,4.40
2018-11-26T01:47:28.907Z,4.40
2018-11-26T01:49:57.063Z,4.40
2018-11-26T01:52:25.245Z,4.40
2018-11-26T01:54:53.408Z,4.40
2018-11-26T01:57:21.571Z,4.40
2018-11-26T01:59:50.064Z,4.40
2018-11-26T02:02:18.227Z,4.40
2018-11-26T02:04:46.680Z,4.40
2018-11-26T02:07:14.844Z,4.30
2018-11-26T02:09:43.024Z,4.30
2018-11-26T02:12:11.191Z,4.30
2018-11-26T02:14:39.341Z,4.30
2018-11-26T02:17:07.507Z,4.30
2018-11-26T02:19:35.679Z,4.30
2018-11-26T02:22:03.987Z,4.30
2018-11-26T02:24:32.151Z,4.30
2018-11-26T02:27:00.656Z,4.30
2018-11-26T02:29:28.853Z,4.30
2018-11-26T02:31:56.995Z,4.20
2018-11-26T02:34:25.116Z,4.20
2018-11-26T02:36:53.275Z,4.20
2018-11-26T02:39:21.390Z,4.20
2018-11-26T02:41:49.542Z,4.20
2018-11-26T02:44:17.683Z,4.20
2018-11-26T02:46:45.827Z,4.20
2018-11-26T02:49:13.954Z,4.20
2018-11-26T02:51:42.565Z,4.20
2018-11-26T02:54:10.702Z,4.20
2018-11-26T02:56:38.852Z,4.20
2018-11-26T02:59:07.005Z,4.20
2018-11-26T03:01:35.415Z,4.20
2018-11-26T03:04:03.550Z,4.20
2018-11-26T03:06:31.711Z,4.20
2018-11-26T03:08:59.864Z,4.20
2018-11-26T03:11:28.141Z,4.20
2018-11-26T03:13:56.795Z,4.20
2018-11-26T03:16:25.448Z,4.20
2018-11-26T03:18:53.832Z,4.10
2018-11-26T03:21:22.152Z,4.20
2018-11-26T03:23:50.474Z,4.10
2018-11-26T03:26:18.756Z,4.10
2018-11-26T03:28:47.076Z,4.10
2018-11-26T03:31:15.380Z,4.20
2018-11-26T03:33:43.761Z,4.20
2018-11-26T03:36:12.065Z,4.20
2018-11-26T03:38:58.332Z,4.10
2018-11-26T03:41:26.812Z,4.10
2018-11-26T03:43:55.127Z,4.10
2018-11-26T03:46:23.421Z,4.10
2018-11-26T03:48:51.802Z,4.10
2018-11-26T03:51:20.128Z,4.10
2018-11-26T03:53:48.467Z,4.10
2018-11-26T03:56:16.769Z,4.10
2018-11-26T03:58:45.056Z,4.10
2018-11-26T04:01:13.359Z,4.10
2018-11-26T04:03:41.662Z,4.10
2018-11-26T04:06:09.933Z,4.10
2018-11-26T04:08:38.265Z,4.10
2018-11-26T04:11:06.615Z,4.10
2018-11-26T04:13:34.922Z,4.10
2018-11-26T04:16:03.236Z,4.00
2018-11-26T04:18:31.549Z,4.00
2018-11-26T04:20:59.849Z,4.10
2018-11-26T04:23:28.198Z,4.00
2018-11-26T04:25:56.611Z,4.00
2018-11-26T04:28:24.927Z,4.00
2018-11-26T04:30:53.244Z,4.00
2018-11-26T04:33:21.558Z,4.00
2018-11-26T04:35:49.873Z,4.00
2018-11-26T04:38:18.182Z,4.00
2018-11-26T04:40:46.465Z,4.00
2018-11-26T04:43:14.767Z,4.00
2018-11-26T04:45:43.069Z,4.00
2018-11-26T04:48:11.392Z,4.00
2018-11-26T04:50:39.651Z,4.00
2018-11-26T04:53:07.966Z,4.00
2018-11-26T04:55:36.262Z,4.00
2018-11-26T04:58:04.931Z,4.00
2018-11-26T05:00:33.237Z,4.00
2018-11-26T05:03:01.533Z,4.00
2018-11-26T05:05:29.811Z,4.00
2018-11-26T05:07:58.162Z,3.90
2018-11-26T05:10:26.605Z,3.90
2018-11-26T05:12:54.952Z,3.90
2018-11-26T05:15:23.253Z,3.90
2018-11-26T05:17:51.596Z,3.90
2018-11-26T05:20:19.939Z,3.90
2018-11-26T05:22:48.256Z,3.90
2018-11-26T05:25:16.613Z,3.80
2018-11-26T05:27:44.886Z,3.80
2018-11-26T05:30:13.881Z,3.80
2018-11-26T05:32:42.539Z,3.80
2018-11-26T05:35:11.637Z,3.80
2018-11-26T05:37:39.960Z,3.80
2018-11-26T05:40:10.716Z,3.80
2018-11-26T05:42:43.267Z,3.70
2018-11-26T05:45:14.598Z,3.70
2018-11-26T05:47:42.874Z,3.70
2018-11-26T05:50:14.013Z,3.70
2018-11-26T05:52:42.314Z,3.70
2018-11-26T05:55:12.664Z,3.70
2018-11-26T05:57:41.061Z,3.70
2018-11-26T06:00:15.975Z,3.60
2018-11-26T06:02:44.359Z,3.60
2018-11-26T06:05:12.698Z,3.60
2018-11-26T06:07:41.015Z,3.60
2018-11-26T06:10:09.898Z,3.60
2018-11-26T06:12:38.223Z,3.50
2018-11-26T06:15:11.375Z,3.50
2018-11-26T06:17:39.960Z,3.50
2018-11-26T06:20:10.687Z,3.40
2018-11-26T06:22:39.038Z,3.40
2018-11-26T06:25:10.173Z,3.40
2018-11-26T06:27:38.745Z,3.40
2018-11-26T06:30:11.660Z,3.40
2018-11-26T06:32:39.770Z,3.30
2018-11-26T06:35:12.704Z,3.40
2018-11-26T06:37:40.914Z,3.30
2018-11-26T06:40:09.975Z,3.30
2018-11-26T06:42:38.103Z,3.30
2018-11-26T06:45:15.004Z,3.30
2018-11-26T06:47:43.139Z,3.30
2018-11-26T06:50:12.407Z,3.20
2018-11-26T06:52:40.551Z,3.20
2018-11-26T06:55:10.377Z,3.20
2018-11-26T06:57:38.830Z,3.10
2018-11-26T07:00:09.483Z,3.10
2018-11-26T07:02:37.614Z,3.10
2018-11-26T07:05:08.491Z,3.10
2018-11-26T07:07:36.628Z,3.10
2018-11-26T07:10:05.143Z,3.10
2018-11-26T07:12:33.268Z,3.10
2018-11-26T07:15:01.688Z,3.10
2018-11-26T07:17:30.141Z,3.10
2018-11-26T07:19:58.281Z,3.10
2018-11-26T07:22:26.439Z,3.10
2018-11-26T07:24:54.637Z,3.10
2018-11-26T07:27:22.816Z,3.10
2018-11-26T07:29:50.976Z,3.10
2018-11-26T07:32:19.110Z,3.10
2018-11-26T07:34:47.256Z,3.10
2018-11-26T07:37:15.388Z,3.10
2018-11-26T07:39:43.538Z,3.10
2018-11-26T07:42:11.715Z,3.10
2018-11-26T07:44:39.846Z,3.10
2018-11-26T07:47:07.983Z,3.10
2018-11-26T07:49:36.111Z,3.00
2018-11-26T07:52:04.667Z,3.00
2018-11-26T07:54:33.120Z,3.00
2018-11-26T07:57:01.617Z,3.10
2018-11-26T07:59:30.076Z,3.10
2018-11-26T08:01:58.380Z,3.10
2018-11-26T08:04:26.675Z,3.00
2018-11-26T08:06:54.972Z,3.00
2018-11-26T08:09:23.394Z,3.00
2018-11-26T08:11:51.766Z,3.00
2018-11-26T08:14:20.054Z,3.00
2018-11-26T08:16:48.376Z,3.00
2018-11-26T08:19:16.668Z,3.00
2018-11-26T08:21:46.195Z,3.00
2018-11-26T08:24:13.473Z,2.90
2018-11-26T08:26:41.817Z,3.00
2018-11-26T08:29:10.149Z,3.00
2018-11-26T08:31:38.483Z,2.90
2018-11-26T08:34:06.944Z,2.90
2018-11-26T08:36:40.601Z,3.00
2018-11-26T08:39:14.517Z,3.00
2018-11-26T08:41:48.464Z,2.90
2018-11-26T08:44:22.730Z,2.90
2018-11-26T08:46:56.404Z,2.90
2018-11-26T08:49:27.081Z,2.90
2018-11-26T08:51:55.232Z,2.90
2018-11-26T08:54:23.406Z,3.00
2018-11-26T08:56:51.695Z,2.90
2018-11-26T08:59:19.835Z,2.90
2018-11-26T09:01:49.498Z,2.90
2018-11-26T09:04:20.038Z,3.00
2018-11-26T09:06:48.621Z,3.00
2018-11-26T09:09:16.809Z,3.00
2018-11-26T09:11:44.986Z,3.00
2018-11-26T09:14:13.125Z,3.00
2018-11-26T09:16:41.280Z,3.10
2018-11-26T09:19:09.425Z,3.10
2018-11-26T09:21:37.568Z,3.10
2018-11-26T09:24:05.704Z,3.00
2018-11-26T09:26:33.849Z,3.00
2018-11-26T09:29:01.982Z,3.00
2018-11-26T09:31:30.138Z,3.00
2018-11-26T09:33:58.274Z,3.00
2018-11-26T09:36:26.482Z,3.00
2018-11-26T09:38:54.624Z,3.00
2018-11-26T09:41:22.784Z,3.00
2018-11-26T09:43:50.969Z,3.00
2018-11-26T09:46:19.518Z,3.00
2018-11-26T09:48:48.248Z,3.00
2018-11-26T09:51:16.549Z,2.90
2018-11-26T09:53:44.908Z,2.90
2018-11-26T09:56:13.225Z,3.00
2018-11-26T09:58:41.539Z,3.00
2018-11-26T10:01:09.910Z,3.00
2018-11-26T10:03:38.196Z,3.00
2018-11-26T10:06:06.515Z,3.00
2018-11-26T10:08:34.833Z,3.00
2018-11-26T10:11:03.218Z,2.90
2018-11-26T10:13:31.509Z,2.90
2018-11-26T10:15:59.845Z,2.90
2018-11-26T10:18:28.247Z,2.90
2018-11-26T10:20:56.699Z,3.00
2018-11-26T10:23:25.083Z,3.00
2018-11-26T10:25:53.402Z,3.00
2018-11-26T10:28:21.744Z,3.00
2018-11-26T10:30:50.187Z,3.00
2018-11-26T10:33:18.574Z,3.00
2018-11-26T10:35:46.983Z,3.10
2018-11-26T10:38:15.352Z,3.10
2018-11-26T10:40:43.675Z,3.10
2018-11-26T10:43:12.419Z,3.10
2018-11-26T10:45:40.381Z,3.10
2018-11-26T10:48:08.806Z,3.10
2018-11-26T10:50:37.095Z,3.10
2018-11-26T10:53:05.664Z,3.10
2018-11-26T10:55:35.889Z,3.10
2018-11-26T10:58:04.453Z,3.10
2018-11-26T11:00:40.177Z,3.20
2018-11-26T11:03:08.315Z,3.20
2018-11-26T11:05:37.036Z,3.20
2018-11-26T11:08:06.214Z,3.20
2018-11-26T11:10:34.382Z,3.20
2018-11-26T11:13:02.582Z,3.20
2018-11-26T11:15:30.714Z,3.20
2018-11-26T11:17:58.868Z,3.20
2018-11-26T11:20:28.000Z,3.20
2018-11-26T11:22:56.114Z,3.10
2018-11-26T11:25:24.655Z,3.20
2018-11-26T11:27:53.220Z,3.10
2018-11-26T11:30:22.536Z,3.10
2018-11-26T11:32:50.680Z,3.20
2018-11-26T11:35:19.508Z,3.20
2018-11-26T11:37:48.609Z,3.10
2018-11-26T11:40:19.889Z,3.10
2018-11-26T11:42:48.137Z,3.10
2018-11-26T11:45:16.296Z,3.10
2018-11-26T11:47:44.460Z,3.10
2018-11-26T11:50:13.537Z,3.10
2018-11-26T11:52:41.697Z,3.10
2018-11-26T11:55:12.914Z,3.20
2018-11-26T11:57:41.040Z,3.20
2018-11-26T12:00:35.223Z,3.30
2018-11-26T12:03:05.604Z,3.30
2018-11-26T12:05:34.049Z,3.40
2018-11-26T12:08:02.337Z,3.50
2018-11-26T12:10:30.708Z,3.60
2018-11-26T12:12:59.077Z,3.80
2018-11-26T12:15:27.517Z,3.70
2018-11-26T12:17:55.894Z,3.80
2018-11-26T12:20:24.259Z,3.80
2018-11-26T12:22:52.641Z,3.70
2018-11-26T12:25:21.428Z,3.70
2018-11-26T12:27:49.875Z,3.70
2018-11-26T12:30:23.225Z,3.70
2018-11-26T12:32:51.574Z,3.70
2018-11-26T12:35:19.873Z,3.70
2018-11-26T12:37:48.280Z,3.60
2018-11-26T12:40:18.810Z,3.60
2018-11-26T12:42:47.138Z,3.60
2018-11-26T12:45:28.104Z,3.50
2018-11-26T12:47:56.291Z,3.50
2018-11-26T12:50:24.444Z,3.50
2018-11-26T12:52:52.668Z,3.50
2018-11-26T12:55:21.747Z,3.50
2018-11-26T12:57:50.553Z,3.60
2018-11-26T13:00:22.526Z,3.50
2018-11-26T13:05:43.463Z,3.50
2018-11-26T13:08:11.654Z,3.50
2018-11-26T13:10:39.898Z,3.40
2018-11-26T13:13:09.233Z,3.40
2018-11-26T13:15:37.478Z,3.40
2018-11-26T13:18:05.941Z,3.40
2018-11-26T13:20:34.177Z,3.30
2018-11-26T13:23:02.421Z,3.30
2018-11-26T13:25:33.340Z,3.40
2018-11-26T13:28:03.392Z,3.30
2018-11-26T13:30:37.265Z,3.30
2018-11-26T13:33:10.049Z,3.30
2018-11-26T13:35:38.656Z,3.30
2018-11-26T13:38:07.882Z,3.30
2018-11-26T13:40:36.141Z,3.30
2018-11-26T13:43:06.867Z,3.30
2018-11-26T13:45:36.628Z,3.30
2018-11-26T13:48:06.452Z,3.30
2018-11-26T13:50:40.149Z,3.30
2018-11-26T13:53:08.612Z,3.30
2018-11-26T13:55:36.761Z,3.30
2018-11-26T13:58:04.963Z,3.30
2018-11-26T14:00:33.113Z,3.30
2018-11-26T14:03:01.276Z,3.30
2018-11-26T14:05:29.450Z,3.30
2018-11-26T14:07:57.580Z,3.30
2018-11-26T14:10:27.014Z,3.20
2018-11-26T14:13:13.236Z,3.20
2018-11-26T14:15:41.471Z,3.20
2018-11-26T14:18:09.736Z,3.20
2018-11-26T14:20:37.922Z,3.10
2018-11-26T14:23:06.585Z,3.10
2018-11-26T14:25:34.768Z,3.10
2018-11-26T14:28:02.944Z,3.10
2018-11-26T14:30:31.150Z,3.00
2018-11-26T14:32:59.407Z,3.00
2018-11-26T14:35:28.024Z,3.00
2018-11-26T14:37:58.418Z,3.00
2018-11-26T14:40:32.092Z,3.00
2018-11-26T14:43:00.246Z,2.90
2018-11-26T14:45:28.896Z,2.90
2018-11-26T14:47:57.023Z,3.00
2018-11-26T14:50:25.170Z,2.90
2018-11-26T14:52:53.321Z,2.90
2018-11-26T14:55:23.765Z,2.90
2018-11-26T14:57:51.904Z,2.90
2018-11-26T15:00:20.567Z,2.90
2018-11-26T15:02:49.018Z,2.90
2018-11-26T15:05:17.345Z,2.80
2018-11-26T15:07:45.675Z,2.90
2018-11-26T15:10:16.123Z,2.90
2018-11-26T15:12:44.726Z,2.90
2018-11-26T15:15:15.074Z,2.90
2018-11-26T15:17:43.746Z,2.90
2018-11-26T15:20:15.205Z,2.90
2018-11-26T15:22:43.328Z,2.90
2018-11-26T15:25:15.969Z,2.90
2018-11-26T15:27:44.112Z,2.90
2018-11-26T15:30:14.699Z,2.90
2018-11-26T15:32:43.282Z,2.90
2018-11-26T15:35:13.646Z,3.00
2018-11-26T15:37:41.814Z,3.00
2018-11-26T15:40:10.933Z,3.00
2018-11-26T15:42:39.397Z,3.00
2018-11-26T15:45:24.865Z,3.00
2018-11-26T15:47:54.372Z,3.00
2018-11-26T15:50:22.513Z,3.00
2018-11-26T15:52:50.687Z,3.00
2018-11-26T15:55:19.861Z,3.10
2018-11-26T15:57:48.114Z,3.10
2018-11-26T16:00:18.198Z,3.10
2018-11-26T16:02:46.463Z,3.10
2018-11-26T16:05:16.903Z,3.10
2018-11-26T16:07:45.617Z,3.10
2018-11-26T16:10:14.552Z,3.10
2018-11-26T16:12:43.284Z,3.00
2018-11-26T16:15:15.942Z,3.00
2018-11-26T16:17:44.166Z,3.00
2018-11-26T16:20:13.817Z,3.00
2018-11-26T16:22:41.986Z,2.90
2018-11-26T16:25:11.697Z,2.90
2018-11-26T16:27:40.141Z,2.90
2018-11-26T16:30:11.054Z,2.90
2018-11-26T16:32:39.323Z,2.90
2018-11-26T16:35:13.006Z,2.90
2018-11-26T16:37:41.155Z,2.80
2018-11-26T16:40:11.182Z,2.80
2018-11-26T16:42:39.468Z,2.90
2018-11-26T16:45:12.734Z,2.90
2018-11-26T16:47:40.968Z,2.90
2018-11-26T16:50:11.392Z,2.80
2018-11-26T16:52:40.206Z,2.80
2018-11-26T16:55:10.154Z,2.80
2018-11-26T16:57:38.612Z,2.80
2018-11-26T17:00:14.176Z,2.80
2018-11-26T17:02:42.560Z,2.80
2018-11-26T17:05:12.957Z,2.80
2018-11-26T17:07:41.311Z,2.80
2018-11-26T17:10:10.465Z,2.80
2018-11-26T17:12:38.987Z,2.80
2018-11-26T17:15:11.032Z,2.80
2018-11-26T17:17:39.566Z,2.80
2018-11-26T17:20:09.642Z,2.70
2018-11-26T17:22:38.227Z,2.70
2018-11-26T17:25:08.247Z,2.70
2018-11-26T17:27:36.764Z,2.70
2018-11-26T17:30:15.549Z,2.70
2018-11-26T17:32:44.033Z,2.70
2018-11-26T17:35:13.856Z,2.70
2018-11-26T17:37:42.960Z,2.70
2018-11-26T17:40:13.089Z,2.70
2018-11-26T17:42:41.382Z,2.70
2018-11-26T17:45:11.265Z,2.70
2018-11-26T17:47:39.844Z,2.70
2018-11-26T17:50:40.927Z,2.70
2018-11-26T17:53:16.549Z,2.80
2018-11-26T17:55:48.513Z,2.80
2018-11-26T17:58:17.241Z,2.80
2018-11-26T18:00:47.337Z,2.90
2018-11-26T18:03:15.503Z,2.90
2018-11-26T18:05:43.808Z,2.90
2018-11-26T18:08:13.969Z,2.90
2018-11-26T18:10:42.310Z,2.90
2018-11-26T18:13:10.638Z,3.00
2018-11-26T18:15:38.946Z,3.00
2018-11-26T18:18:11.619Z,3.00
2018-11-26T18:20:39.905Z,3.00
2018-11-26T18:23:08.948Z,3.00
2018-11-26T18:25:37.288Z,3.00
2018-11-26T18:28:13.881Z,3.00
2018-11-26T18:30:51.229Z,3.00
2018-11-26T18:33:19.497Z,3.10
2018-11-26T18:35:48.379Z,3.10
2018-11-26T18:38:16.949Z,3.10
2018-11-26T18:40:46.835Z,3.10
2018-11-26T18:43:15.144Z,3.10
2018-11-26T18:45:43.407Z,3.20
2018-11-26T18:48:12.888Z,3.20
2018-11-26T18:50:41.211Z,3.20
2018-11-26T18:53:09.510Z,3.20
2018-11-26T18:55:38.943Z,3.20
2018-11-26T18:58:08.039Z,3.20
2018-11-26T19:00:38.962Z,3.20
2018-11-26T19:03:07.457Z,3.20
2018-11-26T19:05:35.974Z,3.30
2018-11-26T19:08:04.482Z,3.30
2018-11-26T19:10:34.710Z,3.30
2018-11-26T19:13:26.988Z,3.30
2018-11-26T19:16:14.227Z,3.30
2018-11-26T19:18:42.813Z,3.30
2018-11-26T19:21:11.119Z,3.30
2018-11-26T19:23:39.369Z,3.30
2018-11-26T19:26:07.620Z,3.30
2018-11-26T19:28:35.813Z,3.30
2018-11-26T19:31:04.126Z,3.30
2018-11-26T19:33:32.357Z,3.30
2018-11-26T19:36:00.608Z,3.30
2018-11-26T19:38:28.800Z,3.30
2018-11-26T19:40:56.952Z,3.30
2018-11-26T19:43:25.420Z,3.30
2018-11-26T19:45:53.628Z,3.30
2018-11-26T19:48:22.827Z,3.30
2018-11-26T19:50:51.111Z,3.30
2018-11-26T19:53:19.405Z,3.30
2018-11-26T19:55:47.979Z,3.40
2018-11-26T19:58:16.230Z,3.40
2018-11-26T20:00:44.494Z,3.30
2018-11-26T20:03:16.237Z,3.30
2018-11-26T20:06:22.494Z,3.40
2018-11-26T20:08:55.477Z,3.30
2018-11-26T20:11:23.670Z,3.40
2018-11-26T20:13:52.035Z,3.30
2018-11-26T20:16:24.311Z,3.30
2018-11-26T20:18:52.536Z,3.40
2018-11-26T20:21:20.771Z,3.40
2018-11-26T20:23:49.004Z,3.40
2018-11-26T20:26:17.235Z,3.40
2018-11-26T20:28:45.611Z,3.40
2018-11-26T20:31:13.988Z,3.40
2018-11-26T20:33:42.506Z,3.40
2018-11-26T20:36:12.280Z,3.30
2018-11-26T20:38:40.719Z,3.30
2018-11-26T20:41:10.315Z,3.30
2018-11-26T20:43:38.715Z,3.30
2018-11-26T20:46:07.061Z,3.30
2018-11-26T20:48:35.281Z,3.30
2018-11-26T20:51:03.562Z,3.30
2018-11-26T20:53:31.813Z,3.30
2018-11-26T20:56:00.609Z,3.30
2018-11-26T20:58:28.854Z,3.40
2018-11-26T21:00:57.872Z,3.30
2018-11-26T21:03:29.662Z,3.30
2018-11-26T21:05:58.304Z,3.30
2018-11-26T21:08:26.688Z,3.30
2018-11-26T21:10:55.310Z,3.30
2018-11-26T21:13:23.643Z,3.30
2018-11-26T21:15:52.080Z,3.30
2018-11-26T21:18:20.455Z,3.30
2018-11-26T21:20:49.875Z,3.30
2018-11-26T21:23:21.674Z,3.30
2018-11-26T21:25:50.252Z,3.30
2018-11-26T21:28:18.623Z,3.30
2018-11-26T21:30:51.832Z,3.30
2018-11-26T21:33:15.585Z,3.30
2018-11-26T21:35:43.960Z,3.30
2018-11-26T21:38:12.621Z,3.30
2018-11-26T21:40:41.410Z,3.30
2018-11-26T21:43:10.935Z,3.30
2018-11-26T21:45:46.221Z,3.30
2018-11-26T21:48:14.432Z,3.30
2018-11-26T21:50:42.592Z,3.30
2018-11-26T21:53:10.726Z,3.30
2018-11-26T21:55:38.929Z,3.30
2018-11-26T21:58:07.165Z,3.30
2018-11-26T22:00:36.173Z,3.30
2018-11-26T22:03:09.458Z,3.30
2018-11-26T22:05:38.611Z,3.30
2018-11-26T22:08:07.408Z,3.30
2018-11-26T22:10:36.583Z,3.30
2018-11-26T22:13:05.734Z,3.30
2018-11-26T22:15:34.459Z,3.30
2018-11-26T22:18:02.772Z,3.30
2018-11-26T22:20:31.697Z,3.30
2018-11-26T22:22:59.996Z,3.30
2018-11-26T22:25:28.308Z,3.30
2018-11-26T22:27:56.602Z,3.30
2018-11-26T22:30:29.306Z,3.30
2018-11-26T22:32:57.607Z,3.30
2018-11-26T22:35:26.025Z,3.30
2018-11-26T22:37:54.373Z,3.30
2018-11-26T22:40:23.844Z,3.30
2018-11-26T22:42:52.288Z,3.30
2018-11-26T22:45:22.763Z,3.30
2018-11-26T22:47:55.121Z,3.30
2018-11-26T22:50:23.597Z,3.30
2018-11-26T22:52:51.745Z,3.30
2018-11-26T22:55:19.917Z,3.30
2018-11-26T22:57:48.063Z,3.30
2018-11-26T23:00:34.566Z,3.20
2018-11-26T23:03:02.714Z,3.30
2018-11-26T23:05:30.835Z,3.20
2018-11-26T23:07:59.413Z,3.20
2018-11-26T23:10:27.830Z,3.30
2018-11-26T23:12:55.977Z,3.30
2018-11-26T23:15:24.243Z,3.30
2018-11-26T23:17:52.580Z,3.30
2018-11-26T23:20:20.956Z,3.30
2018-11-26T23:22:49.247Z,3.30
2018-11-26T23:25:18.803Z,3.30
2018-11-26T23:27:47.237Z,3.30
2018-11-26T23:30:23.320Z,3.30
2018-11-26T23:32:56.674Z,3.30
2018-11-26T23:35:24.993Z,3.30
2018-11-26T23:37:53.301Z,3.30
2018-11-26T23:40:21.592Z,3.30
2018-11-26T23:42:49.965Z,3.30
2018-11-26T23:45:21.290Z,3.30
2018-11-26T23:47:49.614Z,3.30
2018-11-26T23:50:18.138Z,3.30
2018-11-26T23:52:46.951Z,3.30
2018-11-26T23:55:17.299Z,3.20
2018-11-26T23:57:45.650Z,3.20
